Time;durP1;ratioP1;P1;durP2;ratioP2;P2;SDS_P1;SDS_P2;PMS_P1;PMS_P2;Temp;Humidity;BMP_temperature;BMP_pressure;BME280_temperature;BME280_humidity;BME280_pressure;Samples;Min_cycle;Max_cycle;Signal;HPM_P1;HPM_P2
2024/03/05 00:03:56;;;;;;;77.60;37.10;;;;;;;7.88;85.46;98083.54;226824;1273;22693;-84
2024/03/05 00:09:05;;;;;;;80.30;38.90;;;;;;;7.84;85.57;98086.19;226864;1273;22559;-86
2024/03/05 00:14:08;;;;;;;77.60;38.40;;;;;;;7.77;85.33;98087.16;226917;1270;22524;-85
2024/03/05 00:19:12;;;;;;;81.20;39.20;;;;;;;7.66;85.72;98093.48;226759;1269;22525;-85
2024/03/05 00:24:14;;;;;;;76.00;35.80;;;;;;;7.54;85.46;98099.90;226750;1273;22527;-86
2024/03/05 00:29:17;;;;;;;67.60;32.40;;;;;;;7.44;85.77;98104.55;226755;1273;22554;-86
2024/03/05 00:34:19;;;;;;;69.70;33.30;;;;;;;7.35;86.03;98106.20;226863;1273;22582;-84
2024/03/05 00:39:22;;;;;;;66.60;32.10;;;;;;;7.26;86.16;98103.90;226879;1273;24287;-85
2024/03/05 00:44:26;;;;;;;68.10;31.60;;;;;;;7.19;86.10;98104.22;226867;1273;22532;-85
2024/03/05 00:49:29;;;;;;;59.60;31.80;;;;;;;7.15;85.85;98106.46;226771;1273;22539;-86
2024/03/05 00:54:31;;;;;;;59.00;29.60;;;;;;;7.11;86.23;98111.84;226663;1273;285504;-87
2024/03/05 00:59:35;;;;;;;53.30;27.70;;;;;;;7.07;86.23;98114.81;226993;1273;22847;-86
2024/03/05 01:04:38;;;;;;;47.90;27.30;;;;;;;7.04;86.59;98113.89;226915;1260;22614;-86
2024/03/05 01:09:40;;;;;;;45.70;24.40;;;;;;;7.03;86.33;98114.59;226818;1271;22544;-85
2024/03/05 01:14:44;;;;;;;43.20;24.70;;;;;;;7.00;86.62;98118.40;226861;1272;22530;-85
2024/03/05 01:19:48;;;;;;;48.30;27.00;;;;;;;6.96;86.29;98121.41;226830;1273;22553;-85
2024/03/05 01:24:50;;;;;;;48.30;26.80;;;;;;;6.94;86.17;98116.74;226777;1270;22558;-85
2024/03/05 01:29:53;;;;;;;50.00;27.10;;;;;;;6.93;86.66;98113.63;226912;1272;24256;-85
2024/03/05 01:34:56;;;;;;;54.80;30.40;;;;;;;6.95;86.80;98115.02;226786;1271;24241;-85
2024/03/05 01:39:59;;;;;;;55.40;29.00;;;;;;;6.96;86.58;98119.12;226802;1273;25408;-85
2024/03/05 01:45:03;;;;;;;49.20;28.70;;;;;;;6.96;86.78;98123.09;226894;1267;22541;-86
2024/03/05 01:50:09;;;;;;;41.90;25.20;;;;;;;6.96;86.76;98127.09;226776;1270;22991;-85
2024/03/05 01:55:15;;;;;;;36.50;23.70;;;;;;;6.96;86.56;98132.70;226891;1271;22559;-85
2024/03/05 02:00:20;;;;;;;32.20;21.00;;;;;;;6.96;86.37;98140.98;226890;1271;22570;-86
2024/03/05 02:05:23;;;;;;;40.80;23.60;;;;;;;6.95;86.44;98144.27;226866;1273;22526;-85
2024/03/05 02:10:26;;;;;;;39.10;22.70;;;;;;;6.91;86.94;98146.14;226757;1271;22534;-85
2024/03/05 02:15:29;;;;;;;42.90;25.50;;;;;;;6.86;86.53;98142.02;226770;1273;25343;-87
2024/03/05 02:20:32;;;;;;;48.90;28.30;;;;;;;6.80;86.63;98145.71;226719;1273;22538;-86
2024/03/05 02:25:34;;;;;;;45.90;27.20;;;;;;;6.74;86.67;98149.98;226809;1273;22529;-87
2024/03/05 02:30:37;;;;;;;57.80;30.60;;;;;;;6.68;87.71;98155.79;226808;1272;22638;-85
2024/03/05 02:35:40;;;;;;;64.20;32.40;;;;;;;6.62;87.42;98152.64;226884;1272;22902;-87
2024/03/05 02:40:42;;;;;;;62.20;33.70;;;;;;;6.59;87.63;98149.38;226821;1273;22554;-85
2024/03/05 02:45:45;;;;;;;62.60;32.80;;;;;;;6.56;87.89;98150.73;226771;1271;22521;-85
2024/03/05 02:50:48;;;;;;;68.10;34.80;;;;;;;6.52;88.04;98158.36;226728;1273;23309;-84
2024/03/05 02:55:52;;;;;;;60.00;32.40;;;;;;;6.51;87.98;98162.19;226862;1273;24201;-85
2024/03/05 03:00:55;;;;;;;53.70;31.40;;;;;;;6.51;88.11;98163.20;226833;1273;22571;-85
2024/03/05 03:05:58;;;;;;;57.50;31.50;;;;;;;6.50;88.17;98166.52;226878;1266;22536;-85
2024/03/05 03:11:00;;;;;;;59.70;31.70;;;;;;;6.49;88.00;98171.35;226879;1271;22542;-86
2024/03/05 03:16:04;;;;;;;62.70;32.60;;;;;;;6.47;87.85;98178.88;226853;1273;22518;-85
2024/03/05 03:21:06;;;;;;;61.70;30.60;;;;;;;6.47;88.21;98184.52;226778;1273;25424;-85
2024/03/05 03:26:09;;;;;;;54.60;29.80;;;;;;;6.43;88.25;98185.48;226731;1273;22526;-84
2024/03/05 03:31:11;;;;;;;52.30;27.90;;;;;;;6.39;88.36;98191.20;226761;1271;22550;-84
2024/03/05 03:36:24;;;;;;;53.30;26.80;;;;;;;6.36;88.28;98193.87;226840;1271;22517;-84
2024/03/05 03:41:26;;;;;;;50.40;26.90;;;;;;;6.33;88.64;98197.88;226833;1271;22526;-84
2024/03/05 03:46:29;;;;;;;42.10;24.10;;;;;;;6.31;88.58;98197.69;226841;1268;23002;-84
2024/03/05 03:51:32;;;;;;;45.20;24.90;;;;;;;6.28;88.43;98199.31;226894;1271;25444;-84
2024/03/05 03:56:35;;;;;;;38.70;22.00;;;;;;;6.24;88.41;98206.06;226777;1272;22526;-83
2024/03/05 04:01:37;;;;;;;32.80;20.50;;;;;;;6.21;88.29;98211.70;226901;1273;22652;-84
2024/03/05 04:06:42;;;;;;;27.90;19.20;;;;;;;6.18;88.62;98216.70;226782;1271;24855;-84
2024/03/05 04:11:46;;;;;;;27.40;19.00;;;;;;;6.16;88.33;98218.02;226864;1273;22531;-84
2024/03/05 04:16:48;;;;;;;28.10;18.90;;;;;;;6.13;88.55;98217.27;226743;1273;22521;-84
2024/03/05 04:21:51;;;;;;;32.30;21.30;;;;;;;6.11;88.45;98221.52;226808;1269;23038;-84
2024/03/05 04:27:02;;;;;;;34.10;20.90;;;;;;;6.08;88.47;98233.30;226824;1271;22514;-85
2024/03/05 04:32:14;;;;;;;30.30;19.20;;;;;;;6.04;88.38;98233.51;226784;1273;22546;-84
2024/03/05 04:37:17;;;;;;;37.40;22.60;;;;;;;6.04;88.70;98241.94;226895;1273;22518;-84
2024/03/05 04:42:22;;;;;;;35.90;22.60;;;;;;;6.03;88.64;98240.62;226776;1273;22531;-84
2024/03/05 04:47:26;;;;;;;37.40;22.30;;;;;;;5.99;88.60;98248.56;226855;1272;22527;-85
2024/03/05 04:52:28;;;;;;;30.60;19.90;;;;;;;5.94;88.77;98253.67;226874;1271;22526;-84
2024/03/05 04:57:34;;;;;;;27.60;17.90;;;;;;;5.90;88.77;98254.46;226893;1273;22545;-85
2024/03/05 05:02:36;;;;;;;26.40;18.30;;;;;;;5.88;88.76;98261.00;226796;1272;23106;-85
2024/03/05 05:07:39;;;;;;;25.20;17.20;;;;;;;5.85;88.66;98255.75;226780;1273;22535;-85
2024/03/05 05:12:43;;;;;;;22.20;15.90;;;;;;;5.83;88.80;98260.67;226734;1270;22534;-85
2024/03/05 05:17:45;;;;;;;23.20;16.40;;;;;;;5.81;88.83;98261.80;226844;1272;22585;-85
2024/03/05 05:22:48;;;;;;;29.30;19.10;;;;;;;5.78;88.85;98264.21;226777;1272;22619;-85
2024/03/05 05:27:51;;;;;;;29.70;18.80;;;;;;;5.76;89.09;98267.77;226938;1270;22533;-85
2024/03/05 05:32:54;;;;;;;34.10;21.40;;;;;;;5.74;89.00;98276.21;226918;1272;22531;-85
2024/03/05 05:37:58;;;;;;;36.80;22.60;;;;;;;5.71;88.88;98279.01;226840;1271;22989;-86
2024/03/05 05:43:01;;;;;;;42.00;23.80;;;;;;;5.69;88.96;98289.27;226773;1271;22593;-85
2024/03/05 05:48:03;;;;;;;44.60;26.20;;;;;;;5.70;88.95;98294.47;226798;1271;22661;-85
2024/03/05 05:53:08;;;;;;;49.40;28.40;;;;;;;5.71;89.10;98298.40;226808;1269;22530;-85
2024/03/05 05:58:13;;;;;;;50.30;29.10;;;;;;;5.71;88.88;98301.35;226864;1272;22581;-84
2024/03/05 06:03:16;;;;;;;50.20;29.90;;;;;;;5.71;89.06;98304.52;226802;1273;22534;-85
2024/03/05 06:08:20;;;;;;;45.60;24.90;;;;;;;5.70;88.83;98310.19;226867;1272;22544;-86
2024/03/05 06:13:24;;;;;;;49.20;27.60;;;;;;;5.68;88.96;98310.69;226850;1267;22627;-85
2024/03/05 06:18:29;;;;;;;49.10;28.50;;;;;;;5.70;89.16;98320.84;226947;1273;22549;-85
2024/03/05 06:23:31;;;;;;;54.90;30.00;;;;;;;5.72;88.90;98326.98;226920;1271;23082;-85
2024/03/05 06:28:33;;;;;;;50.50;29.10;;;;;;;5.74;89.03;98333.20;226779;1271;22550;-85
2024/03/05 06:33:37;;;;;;;50.40;30.20;;;;;;;5.76;88.78;98334.99;226682;1273;22544;-86
2024/03/05 06:38:39;;;;;;;51.00;27.30;;;;;;;5.80;88.83;98336.15;226806;1272;22546;-86
2024/03/05 06:43:42;;;;;;;51.20;29.00;;;;;;;5.83;88.49;98340.55;226934;1272;23047;-86
2024/03/05 06:48:48;;;;;;;51.90;29.40;;;;;;;5.87;88.47;98340.27;226758;1270;24256;-86
2024/03/05 06:59:14;;;;;;;39.80;25.90;;;;;;;6.04;88.77;98346.49;226619;1267;24618;-78
2024/03/05 07:04:16;;;;;;;44.10;26.60;;;;;;;6.11;88.49;98350.52;226725;1271;23154;-83
2024/03/05 07:09:19;;;;;;;42.30;26.20;;;;;;;6.17;87.96;98361.09;226963;1266;23590;-88
2024/03/05 07:14:23;;;;;;;47.70;28.90;;;;;;;6.24;87.90;98360.83;226944;1266;22586;-87
2024/03/05 07:19:26;;;;;;;42.90;27.20;;;;;;;6.34;88.28;98366.16;226960;1269;22572;-87
2024/03/05 07:24:31;;;;;;;46.70;29.10;;;;;;;6.44;87.22;98370.86;227073;1259;22562;-87
2024/03/05 07:29:34;;;;;;;43.70;27.50;;;;;;;6.50;87.60;98377.35;226415;1266;22555;-86
2024/03/05 07:34:38;;;;;;;37.40;24.80;;;;;;;6.55;87.26;98382.65;226648;1262;25239;-85
2024/03/05 07:39:40;;;;;;;37.70;24.60;;;;;;;6.62;87.05;98387.88;226524;1262;22529;-85
2024/03/05 07:44:42;;;;;;;35.80;24.30;;;;;;;6.69;86.65;98392.32;226490;1271;22999;-87
2024/03/05 07:49:45;;;;;;;37.50;25.10;;;;;;;6.75;86.28;98396.48;226701;1270;22558;-85
2024/03/05 07:54:47;;;;;;;30.70;21.80;;;;;;;6.78;85.95;98402.90;226381;1266;22595;-87
2024/03/05 07:59:50;;;;;;;32.50;22.30;;;;;;;6.76;85.72;98409.02;226515;1263;22526;-84
2024/03/05 08:04:55;;;;;;;34.20;23.60;;;;;;;6.79;85.78;98417.58;226545;1254;22627;-82
2024/03/05 08:09:57;;;;;;;31.60;22.40;;;;;;;6.77;85.46;98423.59;226279;1266;22550;-80
2024/03/05 08:14:59;;;;;;;30.00;21.30;;;;;;;6.72;85.37;98428.17;226166;1269;22574;-81
2024/03/05 08:20:03;;;;;;;28.40;21.00;;;;;;;6.71;85.04;98431.61;226197;1271;25396;-79
2024/03/05 08:25:15;;;;;;;29.10;20.70;;;;;;;6.73;85.15;98431.77;226241;1270;23025;-83
2024/03/05 08:30:21;;;;;;;26.70;19.80;;;;;;;6.79;84.84;98434.45;226314;1263;22514;-83
2024/03/05 08:35:25;;;;;;;29.30;19.10;;;;;;;6.83;84.43;98440.13;226297;1253;22550;-85
2024/03/05 08:40:32;;;;;;;28.40;20.10;;;;;;;6.90;84.22;98445.60;226424;1266;22520;-84
2024/03/05 08:45:37;;;;;;;29.70;20.80;;;;;;;6.94;84.58;98453.57;226660;1273;22717;-83
2024/03/05 08:50:39;;;;;;;26.90;19.60;;;;;;;6.91;84.11;98458.30;226606;1270;23074;-83
2024/03/05 08:55:41;;;;;;;29.00;19.70;;;;;;;6.89;84.21;98456.77;226490;1273;22571;-82
2024/03/05 09:00:43;;;;;;;26.30;19.20;;;;;;;6.90;84.04;98460.64;226505;1273;25411;-83
2024/03/05 09:05:46;;;;;;;26.20;18.10;;;;;;;6.92;83.85;98459.35;226543;1269;22536;-84
2024/03/05 09:10:49;;;;;;;22.60;16.60;;;;;;;6.95;84.07;98460.23;226371;1262;22537;-83
2024/03/05 09:15:53;;;;;;;25.20;19.00;;;;;;;7.00;83.61;98462.33;226343;1267;24479;-82
2024/03/05 09:20:55;;;;;;;22.40;17.10;;;;;;;7.14;83.92;98470.70;226541;1267;22551;-83
2024/03/05 09:25:58;;;;;;;25.30;17.50;;;;;;;7.31;83.72;98471.84;226585;1261;22527;-83
2024/03/05 09:31:00;;;;;;;22.60;17.90;;;;;;;7.47;83.49;98478.53;226558;1266;23101;-84
2024/03/05 09:36:04;;;;;;;22.40;17.50;;;;;;;7.50;82.96;98485.19;226634;1273;22587;-87
2024/03/05 09:41:09;;;;;;;24.10;17.40;;;;;;;7.49;83.02;98491.36;226662;1269;22597;-86
2024/03/05 09:46:15;;;;;;;20.60;16.00;;;;;;;7.57;82.98;98491.70;226594;1270;22537;-85
2024/03/05 09:51:20;;;;;;;21.90;17.30;;;;;;;7.80;82.51;98496.39;226566;1261;23404;-87
2024/03/05 09:56:22;;;;;;;21.50;16.50;;;;;;;8.12;82.23;98494.63;226747;1256;22552;-87
2024/03/05 10:01:24;;;;;;;24.80;17.50;;;;;;;8.43;82.16;98501.91;226738;1273;25265;-86
2024/03/05 10:06:27;;;;;;;21.10;16.30;;;;;;;8.75;81.67;98502.11;226728;1269;24296;-86
2024/03/05 10:11:36;;;;;;;19.40;15.00;;;;;;;9.06;80.85;98501.92;226427;1253;22560;-83
2024/03/05 10:16:39;;;;;;;20.40;15.20;;;;;;;9.32;80.43;98502.33;226257;1267;22604;-85
2024/03/05 10:21:42;;;;;;;19.30;14.40;;;;;;;9.42;79.72;98503.69;226127;1261;22545;-84
2024/03/05 10:26:46;;;;;;;16.70;13.80;;;;;;;9.48;79.13;98511.19;226355;1267;22538;-85
2024/03/05 10:31:50;;;;;;;18.00;14.40;;;;;;;9.59;78.60;98515.54;226375;1253;22570;-85
2024/03/05 10:36:53;;;;;;;15.90;12.10;;;;;;;9.80;78.51;98516.52;226404;1254;25966;-84
2024/03/05 10:41:59;;;;;;;15.30;12.60;;;;;;;9.99;77.37;98519.65;226438;1254;22544;-79
2024/03/05 10:47:04;;;;;;;17.50;12.20;;;;;;;10.18;76.88;98519.20;226365;1257;22546;-85
2024/03/05 10:52:09;;;;;;;16.00;13.00;;;;;;;10.51;77.11;98511.36;226565;1267;22674;-81
2024/03/05 10:57:11;;;;;;;15.80;12.50;;;;;;;10.85;76.48;98509.83;226322;1267;22538;-82
2024/03/05 11:02:15;;;;;;;24.30;20.30;;;;;;;11.03;75.58;98508.80;226266;1267;25032;-83
2024/03/05 11:07:18;;;;;;;16.30;13.10;;;;;;;11.17;75.30;98507.61;226220;1263;22538;-83
2024/03/05 11:12:22;;;;;;;14.20;12.00;;;;;;;11.23;74.63;98510.52;226053;1257;22604;-83
2024/03/05 11:17:24;;;;;;;16.50;12.10;;;;;;;11.31;74.46;98510.41;226002;1267;22581;-83
2024/03/05 11:22:27;;;;;;;16.50;12.30;;;;;;;11.26;73.58;98509.60;226051;1267;23397;-83
2024/03/05 11:27:31;;;;;;;19.10;13.10;;;;;;;11.21;73.41;98508.85;225973;1269;24180;-84
2024/03/05 11:32:37;;;;;;;19.00;13.10;;;;;;;11.12;73.00;98507.38;226060;1260;22886;-83
2024/03/05 11:37:51;;;;;;;17.10;13.60;;;;;;;10.99;72.78;98507.14;226254;1266;22544;-82
2024/03/05 11:42:53;;;;;;;18.80;14.70;;;;;;;10.89;72.72;98510.30;226573;1256;22533;-81
2024/03/05 11:47:56;;;;;;;18.80;13.50;;;;;;;10.72;72.56;98506.23;226624;1251;22545;-81
2024/03/05 11:52:59;;;;;;;21.00;14.60;;;;;;;10.66;72.63;98510.43;226713;1250;22534;-81
2024/03/05 11:58:02;;;;;;;20.90;15.20;;;;;;;10.58;72.45;98517.36;226572;1265;22755;-81
2024/03/05 12:03:06;;;;;;;22.00;15.90;;;;;;;10.46;72.42;98518.52;226421;1267;22541;-81
2024/03/05 12:08:08;;;;;;;19.70;14.90;;;;;;;10.37;72.69;98524.64;226547;1273;22547;-81
2024/03/05 12:13:18;;;;;;;20.90;15.20;;;;;;;10.21;72.63;98528.45;226735;1251;22582;-82
2024/03/05 12:18:21;;;;;;;20.60;16.50;;;;;;;10.13;72.85;98538.67;226661;1267;22602;-83
2024/03/05 12:23:23;;;;;;;24.70;17.40;;;;;;;10.09;72.95;98539.17;226646;1258;22536;-81
2024/03/05 12:28:43;;;;;;;23.90;18.00;;;;;;;10.08;72.69;98544.77;226589;1270;22518;-82
2024/03/05 12:33:46;;;;;;;20.10;16.40;;;;;;;10.01;72.48;98543.40;226757;1268;23289;-82
2024/03/05 12:38:48;;;;;;;25.00;17.60;;;;;;;9.93;72.96;98545.98;226549;1255;22597;-81
2024/03/05 12:43:52;;;;;;;20.10;16.00;;;;;;;9.93;73.14;98544.33;226781;1265;23024;-82
2024/03/05 12:48:58;;;;;;;20.10;15.50;;;;;;;9.97;73.16;98550.31;226569;1265;23866;-82
2024/03/05 12:54:02;;;;;;;20.60;16.10;;;;;;;10.00;73.50;98554.96;226477;1268;220303;-82
2024/03/05 12:59:18;;;;;;;20.40;15.60;;;;;;;10.00;73.17;98556.96;226471;1266;22543;-82
2024/03/05 13:04:20;;;;;;;20.70;15.50;;;;;;;9.97;73.15;98555.63;226712;1267;22530;-83
2024/03/05 13:09:23;;;;;;;20.80;16.00;;;;;;;10.06;73.36;98553.52;226627;1273;22542;-81
2024/03/05 13:14:25;;;;;;;20.80;16.30;;;;;;;10.18;73.15;98537.85;226609;1269;25372;-82
2024/03/05 13:19:28;;;;;;;19.70;15.60;;;;;;;10.26;72.71;98543.73;226712;1273;22553;-84
2024/03/05 13:24:31;;;;;;;21.30;16.80;;;;;;;10.28;72.80;98544.30;226736;1273;22607;-81
2024/03/05 13:29:33;;;;;;;21.80;17.50;;;;;;;10.15;72.55;98552.35;226541;1272;22531;-81
2024/03/05 13:34:35;;;;;;;25.80;18.70;;;;;;;9.91;72.63;98561.99;226523;1266;22540;-79
2024/03/05 13:39:43;;;;;;;27.50;19.50;;;;;;;9.73;73.20;98561.79;226452;1270;23017;-75
2024/03/05 13:44:45;;;;;;;26.80;20.80;;;;;;;9.49;73.04;98571.39;226130;1266;22620;-78
2024/03/05 13:49:48;;;;;;;26.40;19.90;;;;;;;9.23;73.45;98572.31;226425;1254;22537;-78
2024/03/05 13:54:50;;;;;;;31.00;21.90;;;;;;;9.02;73.96;98575.13;226284;1250;24263;-83
2024/03/05 13:59:54;;;;;;;32.40;22.60;;;;;;;8.87;74.30;98586.08;226522;1254;22629;-82
2024/03/05 14:04:56;;;;;;;37.60;23.60;;;;;;;8.72;74.41;98595.92;226617;1270;22729;-79
2024/03/05 14:09:58;;;;;;;34.00;22.40;;;;;;;8.54;74.87;98599.12;226592;1267;24368;-79
2024/03/05 14:15:08;;;;;;;37.30;24.10;;;;;;;8.37;75.23;98608.54;226651;1250;22556;-83
2024/03/05 14:20:11;;;;;;;36.70;24.00;;;;;;;8.27;75.75;98615.40;226646;1257;22616;-78
2024/03/05 14:25:13;;;;;;;37.30;23.20;;;;;;;8.21;76.21;98618.27;226690;1265;25946;-80
2024/03/05 14:30:17;;;;;;;42.00;26.50;;;;;;;8.13;76.06;98617.89;226584;1272;22552;-79
2024/03/05 14:35:22;;;;;;;34.40;23.20;;;;;;;8.08;76.42;98624.98;226717;1271;22664;-79
2024/03/05 14:40:25;;;;;;;34.10;23.60;;;;;;;8.04;76.50;98630.86;226428;1270;22541;-79
2024/03/05 14:45:28;;;;;;;35.50;23.20;;;;;;;8.00;76.83;98630.18;226647;1250;22583;-81
2024/03/05 14:50:30;;;;;;;35.00;22.60;;;;;;;7.94;77.02;98638.57;226616;1266;22551;-79
2024/03/05 14:55:32;;;;;;;34.50;21.60;;;;;;;7.84;76.93;98647.38;226598;1259;22551;-82
2024/03/05 15:00:36;;;;;;;33.50;23.10;;;;;;;7.75;77.18;98646.02;226363;1273;22537;-80
2024/03/05 15:05:38;;;;;;;35.70;23.00;;;;;;;7.68;77.37;98653.10;226365;1273;22955;-79
2024/03/05 15:10:40;;;;;;;38.50;23.70;;;;;;;7.61;77.32;98657.16;226694;1273;22574;-79
2024/03/05 15:15:43;;;;;;;37.00;24.50;;;;;;;7.58;77.62;98661.73;226520;1267;22539;-79
2024/03/05 15:20:46;;;;;;;34.30;22.80;;;;;;;7.54;77.64;98672.00;226673;1266;22513;-80
2024/03/05 15:25:48;;;;;;;33.00;22.40;;;;;;;7.48;77.44;98681.31;226763;1270;22540;-81
2024/03/05 15:30:50;;;;;;;36.40;24.50;;;;;;;7.41;77.49;98690.32;226968;1271;22978;-80
2024/03/05 15:35:52;;;;;;;40.80;27.00;;;;;;;7.38;77.87;98695.36;226859;1270;22551;-80
2024/03/05 15:40:54;;;;;;;41.70;27.40;;;;;;;7.37;78.09;98697.92;226909;1270;22559;-80
2024/03/05 15:45:57;;;;;;;40.40;26.80;;;;;;;7.37;78.24;98702.09;226900;1273;22533;-81
2024/03/05 15:50:59;;;;;;;43.10;27.50;;;;;;;7.35;78.72;98708.99;226969;1270;22563;-79
2024/03/05 15:56:01;;;;;;;41.80;27.60;;;;;;;7.30;78.35;98720.27;226811;1273;22533;-80
2024/03/05 16:01:04;;;;;;;45.10;28.40;;;;;;;7.24;78.37;98725.36;226923;1270;22519;-79
2024/03/05 16:06:08;;;;;;;42.00;28.10;;;;;;;7.17;78.35;98730.74;226975;1273;22527;-80
2024/03/05 16:11:20;;;;;;;39.30;27.10;;;;;;;7.12;78.61;98733.36;226771;1273;22533;-80
2024/03/05 16:16:23;;;;;;;39.80;26.60;;;;;;;7.07;78.79;98741.35;226877;1273;24254;-79
2024/03/05 16:21:27;;;;;;;38.60;26.50;;;;;;;6.99;78.78;98743.45;226919;1270;22569;-79
2024/03/05 16:26:30;;;;;;;41.30;26.30;;;;;;;6.88;78.66;98748.71;226822;1273;22543;-80
2024/03/05 16:31:33;;;;;;;38.30;24.60;;;;;;;6.81;78.95;98749.69;226884;1270;22547;-79
2024/03/05 16:36:35;;;;;;;40.70;27.00;;;;;;;6.76;79.19;98754.17;226846;1269;22513;-80
2024/03/05 16:41:38;;;;;;;42.40;26.80;;;;;;;6.70;79.39;98747.05;226957;1271;22533;-80
2024/03/05 16:46:40;;;;;;;41.70;26.10;;;;;;;6.66;79.62;98749.81;226879;1271;22534;-80
2024/03/05 16:51:43;;;;;;;43.10;27.90;;;;;;;6.59;79.57;98752.62;226916;1271;22543;-80
2024/03/05 16:56:45;;;;;;;43.90;28.00;;;;;;;6.53;80.16;98759.84;226936;1269;22533;-80
2024/03/05 17:01:47;;;;;;;41.80;27.10;;;;;;;6.48;80.07;98769.09;226907;1269;22539;-80
2024/03/05 17:06:51;;;;;;;44.90;29.30;;;;;;;6.42;80.45;98779.17;226855;1268;22535;-80
2024/03/05 17:11:53;;;;;;;52.00;33.60;;;;;;;6.34;80.31;98786.41;226863;1268;22548;-79
2024/03/05 17:16:57;;;;;;;54.60;33.50;;;;;;;6.29;80.71;98785.61;226856;1273;22561;-79
2024/03/05 17:22:00;;;;;;;55.00;34.30;;;;;;;6.26;80.80;98794.31;226901;1267;22674;-79
2024/03/05 17:27:03;;;;;;;48.80;31.60;;;;;;;6.22;80.75;98794.67;226896;1272;22536;-80
2024/03/05 17:32:06;;;;;;;53.30;33.20;;;;;;;6.19;80.34;98795.95;226851;1269;22588;-80
2024/03/05 17:37:09;;;;;;;53.50;34.50;;;;;;;6.15;80.78;98802.52;226860;1271;22595;-80
2024/03/05 17:42:11;;;;;;;47.90;30.50;;;;;;;6.09;80.79;98804.64;226805;1273;22526;-81
2024/03/05 17:47:13;;;;;;;64.00;37.30;;;;;;;6.02;80.70;98802.09;226867;1273;22534;-79
2024/03/05 17:52:15;;;;;;;71.10;42.60;;;;;;;5.87;80.54;98806.17;226800;1273;22530;-80
2024/03/05 17:57:17;;;;;;;59.30;35.30;;;;;;;5.71;80.97;98812.94;226872;1273;23264;-80
2024/03/05 18:02:19;;;;;;;56.50;34.30;;;;;;;5.56;81.09;98819.70;226775;1265;24778;-79
2024/03/05 18:07:21;;;;;;;46.80;30.70;;;;;;;5.43;80.95;98824.58;226840;1268;22544;-79
2024/03/05 18:12:23;;;;;;;48.90;31.70;;;;;;;5.30;81.04;98828.09;226905;1268;22540;-80
2024/03/05 18:17:26;;;;;;;46.20;29.80;;;;;;;5.19;81.29;98832.01;226862;1273;22758;-79
2024/03/05 18:22:29;;;;;;;42.40;26.50;;;;;;;5.11;81.21;98838.74;226732;1273;22637;-80
2024/03/05 18:27:32;;;;;;;41.60;26.90;;;;;;;5.07;81.63;98842.50;226892;1272;25272;-78
2024/03/05 18:32:35;;;;;;;38.40;26.80;;;;;;;5.02;81.62;98843.47;226925;1271;22544;-79
2024/03/05 18:37:38;;;;;;;39.60;27.20;;;;;;;4.95;81.36;98849.24;226815;1269;22636;-79
2024/03/05 18:42:45;;;;;;;41.10;27.40;;;;;;;4.86;82.07;98852.23;226768;1272;22529;-79
2024/03/05 18:47:49;;;;;;;41.30;26.40;;;;;;;4.76;81.97;98859.30;226789;1270;22529;-79
2024/03/05 18:53:07;;;;;;;56.30;33.40;;;;;;;4.76;82.23;98860.02;226858;1268;22578;-79
2024/03/05 18:58:10;;;;;;;70.30;38.70;;;;;;;4.74;82.38;98864.92;226916;1272;25226;-79
2024/03/05 19:03:12;;;;;;;54.90;31.30;;;;;;;4.65;82.15;98868.20;226805;1273;22536;-79
2024/03/05 19:08:14;;;;;;;46.00;28.30;;;;;;;4.55;82.59;98868.11;226790;1273;22929;-80
2024/03/05 19:13:17;;;;;;;47.80;28.30;;;;;;;4.47;82.59;98872.59;226890;1271;22545;-79
2024/03/05 19:18:19;;;;;;;49.10;30.10;;;;;;;4.38;82.49;98870.86;226942;1270;22565;-79
2024/03/05 19:23:22;;;;;;;41.80;26.20;;;;;;;4.30;82.94;98875.34;226713;1273;25396;-80
2024/03/05 19:28:24;;;;;;;48.20;30.50;;;;;;;4.24;82.93;98882.24;226892;1271;22539;-79
2024/03/05 19:33:27;;;;;;;44.70;29.90;;;;;;;4.18;83.16;98880.56;226863;1273;22552;-79
2024/03/05 19:38:29;;;;;;;47.10;30.70;;;;;;;4.11;83.10;98880.80;226846;1267;22553;-79
2024/03/05 19:43:32;;;;;;;52.40;33.90;;;;;;;4.01;83.34;98886.94;226755;1271;22529;-79
2024/03/05 19:48:38;;;;;;;54.90;35.10;;;;;;;3.92;83.23;98883.92;226697;1271;22553;-79
2024/03/05 19:53:40;;;;;;;53.90;35.10;;;;;;;3.83;83.65;98878.83;226755;1265;22537;-81
2024/03/05 19:58:42;;;;;;;53.80;35.70;;;;;;;3.77;83.71;98880.81;226772;1268;22644;-79
2024/03/05 20:03:45;;;;;;;44.60;29.50;;;;;;;3.70;83.56;98881.80;226718;1271;22621;-80
2024/03/05 20:08:48;;;;;;;46.60;30.30;;;;;;;3.67;84.26;98882.78;226628;1273;22530;-80
2024/03/05 20:13:50;;;;;;;43.90;29.00;;;;;;;3.69;84.38;98884.86;226809;1271;22546;-80
2024/03/05 20:18:52;;;;;;;53.10;33.30;;;;;;;3.66;84.38;98883.90;226842;1271;23380;-80
2024/03/05 20:23:56;;;;;;;45.60;30.10;;;;;;;3.61;84.11;98888.39;226825;1269;22568;-79
2024/03/05 20:28:58;;;;;;;49.90;32.70;;;;;;;3.55;84.56;98887.23;226728;1273;22503;-80
2024/03/05 20:34:00;;;;;;;58.30;36.50;;;;;;;3.49;84.49;98887.70;226598;1273;22535;-80
2024/03/05 20:39:04;;;;;;;54.30;35.20;;;;;;;3.45;84.58;98890.56;226739;1270;24263;-80
2024/03/05 20:44:06;;;;;;;49.10;32.10;;;;;;;3.40;84.49;98894.90;226776;1268;25229;-79
2024/03/05 20:49:09;;;;;;;56.00;34.20;;;;;;;3.33;84.73;98897.95;226741;1272;22670;-80
2024/03/05 20:54:11;;;;;;;58.10;38.10;;;;;;;3.30;84.77;98896.47;226740;1273;22627;-79
2024/03/05 20:59:14;;;;;;;61.90;36.80;;;;;;;3.26;84.91;98899.48;226755;1271;22534;-80
2024/03/05 21:04:16;;;;;;;64.60;40.80;;;;;;;3.18;84.88;98901.38;226895;1270;22539;-80
2024/03/05 21:09:19;;;;;;;65.30;41.30;;;;;;;3.11;84.86;98901.16;226935;1273;22538;-80
2024/03/05 21:14:21;;;;;;;66.30;40.80;;;;;;;3.02;84.78;98904.91;226711;1272;23283;-80
2024/03/05 21:19:26;;;;;;;66.60;40.40;;;;;;;2.97;85.00;98908.91;226904;1271;22550;-80
2024/03/05 21:24:29;;;;;;;76.10;42.10;;;;;;;2.90;85.26;98913.14;226866;1273;22533;-79
2024/03/05 21:29:32;;;;;;;75.20;43.70;;;;;;;2.84;85.15;98917.02;226878;1271;22551;-80
2024/03/05 21:34:35;;;;;;;87.60;46.00;;;;;;;2.76;85.16;98919.08;226703;1269;22541;-80
2024/03/05 21:39:37;;;;;;;88.00;45.60;;;;;;;2.70;85.25;98919.27;226698;1273;22543;-80
2024/03/05 21:44:40;;;;;;;100.40;50.80;;;;;;;2.68;85.61;98922.21;226592;1273;22540;-79
2024/03/05 21:49:43;;;;;;;106.30;54.00;;;;;;;2.64;85.47;98929.05;226856;1273;24244;-80
2024/03/05 21:54:45;;;;;;;96.10;51.00;;;;;;;2.59;85.60;98933.98;226691;1271;23059;-80
2024/03/05 21:59:48;;;;;;;103.00;52.80;;;;;;;2.57;85.67;98936.74;226942;1272;22533;-80
2024/03/05 22:04:50;;;;;;;92.00;48.50;;;;;;;2.57;85.90;98939.18;226696;1271;22557;-79
2024/03/05 22:09:52;;;;;;;96.90;49.60;;;;;;;2.57;85.85;98940.09;226759;1273;22988;-79
2024/03/05 22:14:55;;;;;;;80.00;46.80;;;;;;;2.53;85.91;98945.09;226775;1273;22517;-80
2024/03/05 22:19:58;;;;;;;82.70;46.20;;;;;;;2.52;86.13;98951.28;226854;1273;22570;-79
2024/03/05 22:25:00;;;;;;;75.20;43.10;;;;;;;2.53;86.18;98950.54;226767;1268;22902;-79
2024/03/05 22:30:04;;;;;;;70.10;41.00;;;;;;;2.54;86.21;98954.08;226750;1271;22529;-80
2024/03/05 22:35:09;;;;;;;69.50;41.20;;;;;;;2.58;86.20;98952.17;226853;1270;24514;-79
2024/03/05 22:40:13;;;;;;;69.00;40.70;;;;;;;2.65;86.36;98959.36;226893;1273;22650;-80
2024/03/05 22:45:15;;;;;;;77.30;43.10;;;;;;;2.72;86.54;98959.92;226652;1273;22566;-77
2024/03/05 22:50:17;;;;;;;78.00;43.80;;;;;;;2.77;86.47;98957.96;226766;1273;23427;-79
2024/03/05 22:55:19;;;;;;;89.20;52.00;;;;;;;2.75;86.26;98960.38;226705;1250;22586;-80
2024/03/05 23:00:22;;;;;;;96.30;60.40;;;;;;;2.69;86.28;98961.29;226799;1273;22557;-80
2024/03/05 23:05:25;;;;;;;96.10;59.60;;;;;;;2.61;86.32;98964.92;226785;1271;22511;-79
2024/03/05 23:10:29;;;;;;;106.90;65.50;;;;;;;2.53;86.39;98970.86;226753;1273;22525;-79
2024/03/05 23:15:32;;;;;;;87.30;53.50;;;;;;;2.43;86.38;98971.17;226788;1272;22549;-78
2024/03/05 23:20:34;;;;;;;91.10;52.80;;;;;;;2.36;86.44;98971.56;226764;1271;22534;-79